Terminal Aerodrome Forecast
Issued by NWS Wilmington, OH

Home | Current Version | Previous Version | Text Only | Print | Product List | Glossary On
Versions: 1 2 3 4 5 6 7 8 9 10 11 12 13 14 15 16 17
000
FTUS41 KILN 261503 AAC
TAFILN
TAF AMD
KILN 261503Z 2615/2712 18012KT P6SM -SHRA OVC035
      TEMPO 2615/2617 2SM SHRA OVC015
     FM261700 17010G16KT P6SM -SHRA VCTS OVC022CB
      TEMPO 2617/2621 3SM SHRA OVC015
     FM262100 19009KT P6SM VCSH BKN080
     FM270600 23006KT P6SM BKN023=

USA.gov is the U.S. government's official web portal to all federal, state and local government web resources and services.